createdAt,value
2018-09-12T00:00:55.355Z,17.48
2018-09-12T00:03:25.172Z,17.48
2018-09-12T00:05:55.082Z,17.52
2018-09-12T00:08:24.938Z,17.28
2018-09-12T00:10:54.768Z,17.25
2018-09-12T00:13:24.623Z,17.24
2018-09-12T00:15:54.509Z,17.18
2018-09-12T00:18:24.513Z,17.11
2018-09-12T00:20:54.303Z,17.12
2018-09-12T00:23:24.167Z,17.19
2018-09-12T00:25:54.289Z,17.01
2018-09-12T00:28:24.263Z,16.91
2018-09-12T00:30:54.277Z,16.91
2018-09-12T00:33:24.143Z,17.04
2018-09-12T00:35:54.004Z,16.92
2018-09-12T00:38:23.880Z,17.05
2018-09-12T00:40:53.854Z,17.17
2018-09-12T00:43:23.884Z,17.18
2018-09-12T00:45:53.790Z,17.16
2018-09-12T00:48:23.716Z,17.16
2018-09-12T00:50:54.472Z,17.04
2018-09-12T00:53:24.392Z,16.94
2018-09-12T00:55:54.392Z,16.79
2018-09-12T00:58:24.281Z,16.78
2018-09-12T01:00:54.188Z,16.67
2018-09-12T01:03:24.531Z,16.65
2018-09-12T01:05:54.372Z,16.57
2018-09-12T01:09:05.520Z,16.58
2018-09-12T01:11:35.459Z,16.47
2018-09-12T01:14:05.674Z,16.47
2018-09-12T01:16:36.091Z,16.40
2018-09-12T01:19:05.914Z,16.30
2018-09-12T01:21:35.927Z,16.26
2018-09-12T01:24:05.843Z,16.29
2018-09-12T01:26:35.626Z,16.37
2018-09-12T01:29:05.524Z,16.25
2018-09-12T01:31:35.433Z,16.24
2018-09-12T01:35:06.075Z,16.20
2018-09-12T01:37:35.939Z,16.34
2018-09-12T01:40:05.954Z,16.38
2018-09-12T01:42:36.060Z,16.15
2018-09-12T01:45:06.038Z,16.16
2018-09-12T01:47:37.745Z,16.09
2018-09-12T01:50:07.787Z,16.11
2018-09-12T01:52:37.750Z,16.15
2018-09-12T01:55:08.380Z,16.09
2018-09-12T01:57:38.776Z,16.01
2018-09-12T02:00:14.338Z,15.99
2018-09-12T02:02:44.790Z,16.01
2018-09-12T02:05:14.682Z,15.98
2018-09-12T02:07:44.649Z,16.11
2018-09-12T02:10:14.438Z,16.06
2018-09-12T02:12:44.514Z,16.06
2018-09-12T02:15:16.077Z,16.29
2018-09-12T02:17:46.330Z,16.39
2018-09-12T02:20:16.156Z,16.29
2018-09-12T02:22:46.318Z,16.28
2018-09-12T02:25:16.274Z,16.22
2018-09-12T02:27:46.922Z,16.16
2018-09-12T02:30:17.051Z,16.13
2018-09-12T02:32:46.964Z,16.05
2018-09-12T02:35:16.834Z,16.01
2018-09-12T02:37:47.368Z,16.09
2018-09-12T02:40:17.406Z,16.13
2018-09-12T02:42:47.402Z,16.24
2018-09-12T02:45:17.284Z,16.15
2018-09-12T02:47:47.128Z,16.14
2018-09-12T02:50:17.085Z,16.09
2018-09-12T02:52:46.927Z,15.88
2018-09-12T02:55:16.798Z,15.80
2018-09-12T02:57:46.597Z,15.82
2018-09-12T03:00:16.504Z,15.79
2018-09-12T03:02:46.554Z,15.73
2018-09-12T03:05:16.498Z,15.85
2018-09-12T03:07:46.424Z,15.92
2018-09-12T03:10:16.513Z,15.99
2018-09-12T03:12:47.124Z,15.93
2018-09-12T03:16:04.931Z,15.83
2018-09-12T03:18:34.965Z,15.95
2018-09-12T03:21:05.235Z,15.97
2018-09-12T03:23:35.231Z,15.93
2018-09-12T03:26:05.255Z,15.87
2018-09-12T03:28:35.218Z,15.82
2018-09-12T03:31:05.471Z,15.93
2018-09-12T03:33:35.337Z,15.81
2018-09-12T03:36:05.143Z,15.85
2018-09-12T03:38:34.971Z,15.87
2018-09-12T03:41:04.797Z,15.81
2018-09-12T03:43:34.713Z,15.79
2018-09-12T03:46:04.680Z,15.77
2018-09-12T03:48:34.757Z,15.67
2018-09-12T03:54:40.160Z,15.58
2018-09-12T03:57:10.160Z,15.51
2018-09-12T03:59:40.103Z,15.49
2018-09-12T04:02:11.840Z,15.54
2018-09-12T04:04:41.809Z,15.57
2018-09-12T04:07:11.807Z,15.49
2018-09-12T04:09:41.809Z,15.49
2018-09-12T04:12:11.632Z,15.53
2018-09-12T04:14:41.651Z,15.58
2018-09-12T04:17:11.477Z,15.59
2018-09-12T04:19:41.429Z,15.61
2018-09-12T04:22:11.234Z,15.60
2018-09-12T04:24:41.027Z,15.46
2018-09-12T04:27:10.824Z,15.38
2018-09-12T04:29:40.686Z,15.41
2018-09-12T04:32:10.698Z,15.29
2018-09-12T04:34:41.350Z,15.34
2018-09-12T04:37:11.261Z,15.34
2018-09-12T04:39:41.090Z,15.21
2018-09-12T04:42:11.074Z,15.25
2018-09-12T04:44:40.832Z,15.41
2018-09-12T04:47:10.710Z,15.38
2018-09-12T04:49:40.546Z,15.32
2018-09-12T04:52:10.396Z,15.30
2018-09-12T04:54:40.332Z,15.28
2018-09-12T04:57:10.186Z,15.35
2018-09-12T04:59:40.022Z,15.33
2018-09-12T05:02:10.041Z,15.41
2018-09-12T05:04:40.127Z,15.45
2018-09-12T05:07:10.501Z,15.36
2018-09-12T05:09:40.290Z,15.50
2018-09-12T05:12:10.158Z,15.33
2018-09-12T05:14:40.049Z,15.23
2018-09-12T05:17:10.176Z,15.31
2018-09-12T05:20:14.530Z,15.36
2018-09-12T05:22:44.337Z,15.49
2018-09-12T05:25:14.100Z,15.53
2018-09-12T05:27:43.879Z,15.54
2018-09-12T05:30:13.680Z,15.58
2018-09-12T05:32:43.534Z,15.67
2018-09-12T05:35:13.340Z,15.73
2018-09-12T05:37:43.181Z,15.81
2018-09-12T05:40:12.960Z,15.93
2018-09-12T05:42:42.772Z,15.99
2018-09-12T05:45:12.622Z,16.04
2018-09-12T05:47:42.432Z,16.01
2018-09-12T05:50:12.283Z,15.99
2018-09-12T05:52:42.201Z,15.99
2018-09-12T05:55:12.062Z,15.94
2018-09-12T05:57:42.190Z,15.85
2018-09-12T06:00:12.040Z,15.84
2018-09-12T06:02:42.025Z,15.89
2018-09-12T06:05:11.821Z,15.87
2018-09-12T06:07:41.601Z,15.89
2018-09-12T06:10:11.725Z,15.88
2018-09-12T06:12:41.925Z,16.06
2018-09-12T06:15:11.834Z,16.01
2018-09-12T06:17:41.632Z,16.12
2018-09-12T06:20:11.474Z,16.14
2018-09-12T06:22:42.240Z,16.23
2018-09-12T06:25:12.017Z,16.22
2018-09-12T06:27:42.565Z,16.35
2018-09-12T06:30:12.562Z,16.94
2018-09-12T06:32:43.391Z,18.83
2018-09-12T06:35:13.620Z,21.03
2018-09-12T06:37:43.996Z,22.65
2018-09-12T06:40:14.766Z,23.55
2018-09-12T06:42:45.080Z,24.11
2018-09-12T06:45:15.428Z,24.46
2018-09-12T06:47:45.800Z,25.45
2018-09-12T06:50:16.484Z,26.28
2018-09-12T06:52:46.870Z,27.01
2018-09-12T06:55:17.227Z,27.63
2018-09-12T06:57:47.317Z,27.85
2018-09-12T07:00:17.405Z,28.28
2018-09-12T07:02:47.490Z,28.75
2018-09-12T07:05:17.536Z,29.02
2018-09-12T07:08:18.211Z,29.60
2018-09-12T07:10:48.628Z,30.33
2018-09-12T07:13:18.698Z,30.44
2018-09-12T07:15:48.749Z,30.12
2018-09-12T07:18:19.034Z,30.95
2018-09-12T07:20:49.126Z,30.96
2018-09-12T07:23:19.305Z,31.85
2018-09-12T07:25:49.438Z,31.94
2018-09-12T07:28:19.545Z,31.82
2018-09-12T07:30:49.967Z,31.64
2018-09-12T07:33:20.362Z,32.43
2018-09-12T07:35:50.416Z,32.64
2018-09-12T07:38:20.470Z,32.33
2018-09-12T07:40:50.548Z,32.15
2018-09-12T07:43:20.931Z,32.78
2018-09-12T07:45:51.114Z,33.04
2018-09-12T07:48:21.172Z,32.84
2018-09-12T07:50:51.317Z,32.99
2018-09-12T07:53:21.448Z,33.38
2018-09-12T07:55:51.719Z,33.09
2018-09-12T07:58:21.984Z,33.16
2018-09-12T08:00:52.411Z,33.44
2018-09-12T08:03:22.507Z,32.88
2018-09-12T08:05:52.587Z,30.94
2018-09-12T08:08:22.704Z,29.65
2018-09-12T08:10:53.045Z,28.59
2018-09-12T08:13:23.403Z,28.89
2018-09-12T08:15:53.817Z,29.47
2018-09-12T08:18:23.878Z,29.77
2018-09-12T08:20:54.248Z,29.92
2018-09-12T08:23:24.585Z,28.69
2018-09-12T08:25:54.931Z,27.71
2018-09-12T08:28:25.489Z,27.11
2018-09-12T08:30:55.917Z,27.16
2018-09-12T08:33:26.413Z,26.69
2018-09-12T08:35:57.595Z,26.09
2018-09-12T08:38:27.977Z,25.93
2018-09-12T08:40:58.369Z,25.30
2018-09-12T08:43:29.087Z,25.32
2018-09-12T08:45:59.579Z,25.28
2018-09-12T08:48:29.919Z,25.21
2018-09-12T08:51:00.569Z,25.22
2018-09-12T08:53:30.962Z,25.31
2018-09-12T08:56:01.702Z,25.29
2018-09-12T08:58:32.325Z,25.38
2018-09-12T09:01:02.747Z,25.44
2018-09-12T09:03:33.115Z,25.60
2018-09-12T09:06:03.841Z,25.54
2018-09-12T09:08:34.430Z,25.59
2018-09-12T09:11:05.225Z,25.72
2018-09-12T09:13:35.621Z,25.88
2018-09-12T09:16:06.024Z,25.73
2018-09-12T09:18:36.381Z,25.78
2018-09-12T09:21:06.991Z,25.66
2018-09-12T09:23:37.774Z,25.87
2018-09-12T09:26:08.369Z,25.77
2018-09-12T09:28:38.763Z,25.88
2018-09-12T09:31:09.606Z,25.89
2018-09-12T09:33:40.276Z,25.91
2018-09-12T09:36:10.681Z,25.92
2018-09-12T09:38:41.041Z,26.00
2018-09-12T09:41:11.770Z,26.16
2018-09-12T09:43:42.162Z,26.34
2018-09-12T09:46:12.668Z,26.44
2018-09-12T09:48:43.037Z,26.59
2018-09-12T09:51:13.375Z,26.68
2018-09-12T09:53:43.821Z,26.90
2018-09-12T09:56:14.506Z,27.06
2018-09-12T09:58:44.881Z,26.89
2018-09-12T10:01:20.507Z,26.92
2018-09-12T10:03:55.897Z,27.17
2018-09-12T10:06:28.093Z,27.22
2018-09-12T10:08:59.255Z,27.32
2018-09-12T10:11:29.605Z,27.38
2018-09-12T10:14:00.541Z,27.37
2018-09-12T10:16:30.911Z,27.49
2018-09-12T10:19:02.221Z,27.60
2018-09-12T10:21:33.541Z,27.85
2018-09-12T10:24:03.683Z,27.82
2018-09-12T10:26:34.083Z,27.85
2018-09-12T10:29:04.462Z,28.10
2018-09-12T10:31:35.159Z,28.22
2018-09-12T10:34:05.637Z,28.29
2018-09-12T10:36:36.239Z,28.37
2018-09-12T10:39:11.013Z,28.32
2018-09-12T10:41:41.255Z,28.32
2018-09-12T10:44:11.953Z,28.40
2018-09-12T10:46:42.083Z,28.56
2018-09-12T10:49:12.838Z,28.61
2018-09-12T10:51:43.211Z,28.56
2018-09-12T10:54:13.601Z,28.69
2018-09-12T10:56:43.937Z,28.73
2018-09-12T10:59:14.093Z,28.85
2018-09-12T11:01:44.439Z,28.88
2018-09-12T11:04:14.616Z,29.12
2018-09-12T11:06:44.889Z,29.21
2018-09-12T11:09:15.105Z,29.24
2018-09-12T11:11:45.387Z,29.03
2018-09-12T11:14:15.456Z,29.07
2018-09-12T11:16:45.516Z,29.29
2018-09-12T11:19:15.586Z,29.25
2018-09-12T11:21:45.689Z,29.24
2018-09-12T11:24:15.874Z,29.28
2018-09-12T11:26:45.940Z,29.51
2018-09-12T11:29:16.053Z,29.61
2018-09-12T11:31:46.076Z,29.66
2018-09-12T11:34:16.272Z,29.71
2018-09-12T11:36:46.574Z,29.85
2018-09-12T11:39:16.759Z,29.98
2018-09-12T11:41:47.034Z,29.83
2018-09-12T11:44:17.145Z,29.78
2018-09-12T11:46:47.235Z,29.95
2018-09-12T11:49:17.656Z,29.52
2018-09-12T11:51:47.730Z,29.72
2018-09-12T11:54:18.110Z,29.76
2018-09-12T11:56:48.228Z,29.90
2018-09-12T11:59:18.368Z,30.12
2018-09-12T12:01:48.450Z,30.20
2018-09-12T12:04:18.590Z,30.16
2018-09-12T12:06:48.867Z,30.04
2018-09-12T12:09:18.968Z,30.19
2018-09-12T12:11:49.050Z,30.38
2018-09-12T12:14:19.480Z,30.48
2018-09-12T12:16:49.546Z,30.64
2018-09-12T12:19:19.637Z,30.62
2018-09-12T12:21:49.686Z,30.30
2018-09-12T12:24:19.752Z,30.30
2018-09-12T12:26:49.808Z,30.46
2018-09-12T12:29:19.949Z,30.55
2018-09-12T12:31:50.052Z,30.79
2018-09-12T12:34:20.119Z,30.84
2018-09-12T12:36:50.220Z,30.74
2018-09-12T12:39:20.335Z,30.78
2018-09-12T12:41:50.694Z,30.79
2018-09-12T12:44:20.806Z,30.64
2018-09-12T12:46:50.965Z,30.55
2018-09-12T12:49:21.062Z,30.30
2018-09-12T12:51:51.095Z,30.37
2018-09-12T12:54:21.184Z,30.44
2018-09-12T12:56:51.314Z,30.57
2018-09-12T12:59:21.441Z,30.62
2018-09-12T13:01:51.470Z,30.75
2018-09-12T13:04:21.574Z,30.36
2018-09-12T13:06:51.610Z,30.50
2018-09-12T13:09:21.757Z,30.69
2018-09-12T13:11:52.048Z,30.79
2018-09-12T13:14:22.115Z,30.78
2018-09-12T13:16:52.224Z,30.76
2018-09-12T13:19:22.330Z,30.74
2018-09-12T13:28:41.239Z,31.06
2018-09-12T13:31:11.372Z,31.26
2018-09-12T13:33:41.516Z,31.36
2018-09-12T13:36:12.620Z,31.12
2018-09-12T13:38:42.720Z,31.18
2018-09-12T13:41:12.830Z,31.15
2018-09-12T13:43:42.938Z,31.14
2018-09-12T13:46:13.133Z,30.69
2018-09-12T13:48:43.254Z,30.85
2018-09-12T13:51:13.352Z,30.80
2018-09-12T13:53:43.420Z,30.60
2018-09-12T13:56:13.518Z,30.64
2018-09-12T13:58:43.788Z,30.55
2018-09-12T14:01:13.864Z,30.52
2018-09-12T14:03:44.751Z,30.52
2018-09-12T14:06:14.798Z,30.65
2018-09-12T14:08:44.907Z,30.72
2018-09-12T17:22:08.200Z,26.37
2018-09-12T17:24:38.554Z,26.38
2018-09-12T17:27:09.036Z,26.35
2018-09-12T17:29:39.448Z,26.30
2018-09-12T17:32:09.818Z,26.20
2018-09-12T17:34:40.322Z,26.14
2018-09-12T17:37:11.088Z,26.05
2018-09-12T17:39:41.396Z,25.91
2018-09-12T17:42:11.776Z,25.91
2018-09-12T17:44:42.508Z,25.84
2018-09-12T17:47:12.892Z,25.76
2018-09-12T17:49:43.246Z,25.62
2018-09-12T17:52:13.590Z,25.49
2018-09-12T17:54:44.002Z,25.35
2018-09-12T17:57:14.403Z,25.19
2018-09-12T17:59:44.728Z,25.14
2018-09-12T18:02:15.204Z,25.00
2018-09-12T18:04:45.810Z,24.86
2018-09-12T18:07:16.231Z,24.72
2018-09-12T18:09:46.824Z,24.71
2018-09-12T18:12:17.267Z,24.78
2018-09-12T18:14:47.865Z,24.79
2018-09-12T18:17:18.319Z,24.61
2018-09-12T18:19:49.213Z,24.57
2018-09-12T18:22:20.474Z,24.39
2018-09-12T18:24:51.022Z,24.30
2018-09-12T18:27:21.470Z,24.23
2018-09-12T18:29:52.079Z,24.13
2018-09-12T18:32:22.461Z,23.96
2018-09-12T18:34:52.811Z,23.87
2018-09-12T18:37:23.152Z,23.77
2018-09-12T18:39:53.498Z,23.74
2018-09-12T18:42:24.153Z,23.67
2018-09-12T18:44:54.499Z,23.61
2018-09-12T18:47:24.838Z,23.66
2018-09-12T18:49:55.175Z,23.45
2018-09-12T18:52:25.691Z,23.37
2018-09-12T18:54:55.967Z,23.29
2018-09-12T18:57:26.322Z,23.18
2018-09-12T18:59:56.968Z,23.22
2018-09-12T19:02:27.738Z,23.09
2018-09-12T19:04:58.060Z,23.08
2018-09-12T19:07:28.477Z,23.10
2018-09-12T19:09:58.900Z,23.04
2018-09-12T19:12:29.438Z,22.95
2018-09-12T19:14:59.842Z,22.90
2018-09-12T19:17:30.327Z,22.85
2018-09-12T19:20:01.047Z,22.80
2018-09-12T19:22:31.403Z,22.80
2018-09-12T19:25:01.992Z,22.72
2018-09-12T19:27:32.581Z,22.58
2018-09-12T19:30:02.952Z,22.62
2018-09-12T19:32:33.384Z,22.58
2018-09-12T19:35:04.077Z,22.48
2018-09-12T19:37:34.502Z,22.46
2018-09-12T19:40:04.913Z,22.51
2018-09-12T19:42:35.966Z,22.45
2018-09-12T19:45:06.712Z,22.57
2018-09-12T19:47:37.077Z,22.61
2018-09-12T19:50:07.489Z,22.62
2018-09-12T19:52:38.231Z,22.53
2018-09-12T19:55:08.950Z,22.50
2018-09-12T19:57:39.338Z,22.40
2018-09-12T20:00:18.305Z,22.41
2018-09-12T20:02:49.624Z,22.42
2018-09-12T20:05:20.291Z,22.37
2018-09-12T20:07:51.406Z,22.36
2018-09-12T20:10:21.969Z,22.28
2018-09-12T20:12:52.366Z,22.25
2018-09-12T20:15:22.804Z,22.28
2018-09-12T20:17:53.653Z,22.25
2018-09-12T20:20:24.051Z,22.20
2018-09-12T20:22:54.731Z,22.20
2018-09-12T20:25:25.132Z,22.17
2018-09-12T20:27:55.539Z,22.12
2018-09-12T20:30:25.909Z,21.94
2018-09-12T20:32:56.270Z,21.78
2018-09-12T20:35:26.622Z,21.77
2018-09-12T20:37:57.853Z,21.75
2018-09-12T20:40:28.247Z,21.78
2018-09-12T20:42:58.574Z,21.82
2018-09-12T20:45:29.275Z,21.81
2018-09-12T20:47:59.915Z,21.79
2018-09-12T20:50:30.642Z,21.82
2018-09-12T20:53:01.404Z,21.75
2018-09-12T20:55:32.207Z,21.73
2018-09-12T20:58:03.279Z,21.82
2018-09-12T21:00:33.873Z,21.79
2018-09-12T21:03:04.517Z,21.79
2018-09-12T21:05:35.116Z,21.82
2018-09-12T21:08:06.163Z,21.74
2018-09-12T21:10:36.753Z,21.66
2018-09-12T21:13:07.160Z,21.71
2018-09-12T21:15:37.635Z,21.85
2018-09-12T21:18:08.109Z,21.76
2018-09-12T21:20:39.021Z,21.83
2018-09-12T21:23:09.481Z,21.70
2018-09-12T21:25:40.097Z,21.70
2018-09-12T21:28:10.655Z,21.58
2018-09-12T21:30:40.973Z,21.55
2018-09-12T21:33:11.385Z,21.64
2018-09-12T21:35:41.920Z,21.66
2018-09-12T21:38:12.299Z,21.73
2018-09-12T21:40:42.881Z,21.70
2018-09-12T21:43:13.504Z,21.72
2018-09-12T21:45:44.307Z,21.73
2018-09-12T21:48:14.895Z,21.71
2018-09-12T21:50:45.222Z,21.69
2018-09-12T21:53:15.657Z,21.78
2018-09-12T21:55:46.035Z,21.77
2018-09-12T21:58:16.343Z,21.75
2018-09-12T22:00:46.983Z,21.80
2018-09-12T22:03:17.359Z,21.76
2018-09-12T22:05:47.769Z,21.66
2018-09-12T22:08:18.137Z,21.61
2018-09-12T22:10:48.503Z,21.49
2018-09-12T22:13:19.261Z,21.52
2018-09-12T22:15:49.883Z,21.35
2018-09-12T22:18:20.340Z,21.25
2018-09-12T22:20:50.748Z,21.10
2018-09-12T22:23:21.634Z,20.99
2018-09-12T22:25:52.001Z,20.81
2018-09-12T22:28:22.395Z,20.68
2018-09-12T22:30:52.769Z,20.75
2018-09-12T22:33:23.140Z,20.63
2018-09-12T22:35:53.532Z,20.41
2018-09-12T22:38:23.817Z,20.23
2018-09-12T22:40:54.158Z,20.11
2018-09-12T22:43:25.192Z,19.95
2018-09-12T22:45:55.518Z,19.90
2018-09-12T22:48:25.877Z,19.85
2018-09-12T22:50:56.235Z,19.77
2018-09-12T22:53:26.600Z,19.79
2018-09-12T22:55:57.297Z,19.74
2018-09-12T22:58:27.615Z,19.82
2018-09-12T23:00:57.975Z,19.90
2018-09-12T23:03:28.501Z,19.96
2018-09-12T23:05:58.865Z,19.89
2018-09-12T23:08:29.440Z,19.87
2018-09-12T23:10:59.771Z,19.93
2018-09-12T23:13:30.142Z,19.86
2018-09-12T23:16:00.470Z,19.83
2018-09-12T23:18:30.892Z,19.89
2018-09-12T23:21:01.612Z,19.78
2018-09-12T23:23:32.007Z,19.84
2018-09-12T23:26:02.375Z,19.92
2018-09-12T23:28:32.742Z,19.87
2018-09-12T23:31:03.079Z,19.87
2018-09-12T23:33:33.551Z,19.71
2018-09-12T23:36:04.081Z,19.73
2018-09-12T23:38:34.424Z,19.40
2018-09-12T23:41:04.836Z,19.23
2018-09-12T23:43:35.545Z,18.99
2018-09-12T23:47:06.524Z,18.86
2018-09-12T23:49:36.864Z,18.80
2018-09-12T23:52:07.109Z,18.77
2018-09-12T23:54:36.886Z,18.82
2018-09-12T23:57:07.061Z,18.84
2018-09-12T23:59:37.634Z,18.85
